sensor_id;sensor_type;location;lat;lon;timestamp;temperature;humidity
18694;DHT22;9477;51.414;10.362;2024-01-25T00:00:23;10.80;99.90
18694;DHT22;9477;51.414;10.362;2024-01-25T00:02:25;10.70;99.90
18694;DHT22;9477;51.414;10.362;2024-01-25T00:04:28;10.90;99.90
18694;DHT22;9477;51.414;10.362;2024-01-25T00:06:33;11.10;99.90
18694;DHT22;9477;51.414;10.362;2024-01-25T00:08:35;11.00;99.90
18694;DHT22;9477;51.414;10.362;2024-01-25T00:10:38;11.00;99.90
18694;DHT22;9477;51.414;10.362;2024-01-25T00:12:41;10.60;99.90
18694;DHT22;9477;51.414;10.362;2024-01-25T00:14:43;11.00;99.90
18694;DHT22;9477;51.414;10.362;2024-01-25T00:16:46;10.90;99.90
18694;DHT22;9477;51.414;10.362;2024-01-25T00:18:48;10.90;99.90
18694;DHT22;9477;51.414;10.362;2024-01-25T00:20:52;10.90;99.90
18694;DHT22;9477;51.414;10.362;2024-01-25T00:22:56;10.90;99.90
18694;DHT22;9477;51.414;10.362;2024-01-25T00:24:58;10.90;99.90
18694;DHT22;9477;51.414;10.362;2024-01-25T00:27:01;11.00;99.90
18694;DHT22;9477;51.414;10.362;2024-01-25T00:29:04;11.00;99.90
18694;DHT22;9477;51.414;10.362;2024-01-25T00:31:07;11.00;99.90
18694;DHT22;9477;51.414;10.362;2024-01-25T00:33:10;11.10;99.90
18694;DHT22;9477;51.414;10.362;2024-01-25T00:35:14;11.10;99.90
18694;DHT22;9477;51.414;10.362;2024-01-25T00:37:18;11.10;99.90
18694;DHT22;9477;51.414;10.362;2024-01-25T00:39:22;11.00;99.90
18694;DHT22;9477;51.414;10.362;2024-01-25T00:41:25;11.00;99.90
18694;DHT22;9477;51.414;10.362;2024-01-25T00:43:28;11.10;99.90
18694;DHT22;9477;51.414;10.362;2024-01-25T00:45:31;11.00;99.90
18694;DHT22;9477;51.414;10.362;2024-01-25T00:47:34;11.00;99.90
18694;DHT22;9477;51.414;10.362;2024-01-25T00:49:38;11.00;99.90
18694;DHT22;9477;51.414;10.362;2024-01-25T00:51:44;11.00;99.90
18694;DHT22;9477;51.414;10.362;2024-01-25T00:53:49;10.90;99.90
18694;DHT22;9477;51.414;10.362;2024-01-25T00:55:54;10.90;99.90
18694;DHT22;9477;51.414;10.362;2024-01-25T00:57:57;11.10;99.90
18694;DHT22;9477;51.414;10.362;2024-01-25T01:00:02;11.10;99.90
18694;DHT22;9477;51.414;10.362;2024-01-25T01:02:10;11.00;99.90
18694;DHT22;9477;51.414;10.362;2024-01-25T01:04:14;11.00;99.90
18694;DHT22;9477;51.414;10.362;2024-01-25T01:06:16;11.00;99.90
18694;DHT22;9477;51.414;10.362;2024-01-25T01:08:20;11.10;99.90
18694;DHT22;9477;51.414;10.362;2024-01-25T01:10:23;10.90;99.90
18694;DHT22;9477;51.414;10.362;2024-01-25T01:12:27;11.00;99.90
18694;DHT22;9477;51.414;10.362;2024-01-25T01:14:30;11.00;99.90
18694;DHT22;9477;51.414;10.362;2024-01-25T01:16:33;10.90;99.90
18694;DHT22;9477;51.414;10.362;2024-01-25T01:18:37;11.00;99.90
18694;DHT22;9477;51.414;10.362;2024-01-25T01:20:41;10.90;99.90
18694;DHT22;9477;51.414;10.362;2024-01-25T01:22:43;10.90;99.90
18694;DHT22;9477;51.414;10.362;2024-01-25T01:24:46;10.80;99.90
18694;DHT22;9477;51.414;10.362;2024-01-25T01:26:49;10.90;99.90
18694;DHT22;9477;51.414;10.362;2024-01-25T01:28:54;11.00;99.90
18694;DHT22;9477;51.414;10.362;2024-01-25T01:30:57;11.00;99.90
18694;DHT22;9477;51.414;10.362;2024-01-25T01:33:00;11.00;99.90
18694;DHT22;9477;51.414;10.362;2024-01-25T01:35:04;11.00;99.90
18694;DHT22;9477;51.414;10.362;2024-01-25T01:37:07;10.90;99.90
18694;DHT22;9477;51.414;10.362;2024-01-25T01:39:10;10.90;99.90
18694;DHT22;9477;51.414;10.362;2024-01-25T01:41:12;11.00;99.90
18694;DHT22;9477;51.414;10.362;2024-01-25T01:43:18;11.00;99.90
18694;DHT22;9477;51.414;10.362;2024-01-25T01:45:23;11.00;99.90
18694;DHT22;9477;51.414;10.362;2024-01-25T01:47:26;10.90;99.90
18694;DHT22;9477;51.414;10.362;2024-01-25T01:49:29;10.90;99.90
18694;DHT22;9477;51.414;10.362;2024-01-25T01:51:33;10.80;99.90
18694;DHT22;9477;51.414;10.362;2024-01-25T01:53:36;10.90;99.90
18694;DHT22;9477;51.414;10.362;2024-01-25T01:55:40;10.70;99.90
18694;DHT22;9477;51.414;10.362;2024-01-25T01:57:44;10.70;99.90
18694;DHT22;9477;51.414;10.362;2024-01-25T01:59:46;10.60;99.90
18694;DHT22;9477;51.414;10.362;2024-01-25T02:01:52;10.80;99.90
18694;DHT22;9477;51.414;10.362;2024-01-25T02:03:55;10.80;99.90
18694;DHT22;9477;51.414;10.362;2024-01-25T02:05:58;10.90;99.90
18694;DHT22;9477;51.414;10.362;2024-01-25T02:08:05;10.80;99.90
18694;DHT22;9477;51.414;10.362;2024-01-25T02:10:09;10.80;99.90
18694;DHT22;9477;51.414;10.362;2024-01-25T02:12:15;10.90;99.90
18694;DHT22;9477;51.414;10.362;2024-01-25T02:14:18;10.80;99.90
18694;DHT22;9477;51.414;10.362;2024-01-25T02:16:21;10.80;99.90
18694;DHT22;9477;51.414;10.362;2024-01-25T02:18:25;10.60;99.90
18694;DHT22;9477;51.414;10.362;2024-01-25T02:20:28;10.70;99.90
18694;DHT22;9477;51.414;10.362;2024-01-25T02:22:32;10.70;99.90
18694;DHT22;9477;51.414;10.362;2024-01-25T02:24:35;10.60;99.90
18694;DHT22;9477;51.414;10.362;2024-01-25T02:26:37;10.70;99.90
18694;DHT22;9477;51.414;10.362;2024-01-25T02:28:40;10.70;99.90
18694;DHT22;9477;51.414;10.362;2024-01-25T02:30:42;10.60;99.90
18694;DHT22;9477;51.414;10.362;2024-01-25T02:32:45;10.60;99.90
18694;DHT22;9477;51.414;10.362;2024-01-25T02:34:48;10.60;99.90
18694;DHT22;9477;51.414;10.362;2024-01-25T02:36:50;10.50;99.90
18694;DHT22;9477;51.414;10.362;2024-01-25T02:38:55;10.60;99.90
18694;DHT22;9477;51.414;10.362;2024-01-25T02:40:56;10.70;99.90
18694;DHT22;9477;51.414;10.362;2024-01-25T02:42:59;10.70;99.90
18694;DHT22;9477;51.414;10.362;2024-01-25T02:45:01;10.60;99.90
18694;DHT22;9477;51.414;10.362;2024-01-25T02:47:04;10.70;99.90
18694;DHT22;9477;51.414;10.362;2024-01-25T02:49:07;10.50;99.90
18694;DHT22;9477;51.414;10.362;2024-01-25T02:51:10;10.40;99.90
18694;DHT22;9477;51.414;10.362;2024-01-25T02:53:13;10.40;99.90
18694;DHT22;9477;51.414;10.362;2024-01-25T02:55:19;10.40;99.90
18694;DHT22;9477;51.414;10.362;2024-01-25T02:57:23;10.30;99.90
18694;DHT22;9477;51.414;10.362;2024-01-25T02:59:24;10.30;99.90
18694;DHT22;9477;51.414;10.362;2024-01-25T03:01:27;10.20;99.90
18694;DHT22;9477;51.414;10.362;2024-01-25T03:03:30;10.50;99.90
18694;DHT22;9477;51.414;10.362;2024-01-25T03:05:33;10.50;99.90
18694;DHT22;9477;51.414;10.362;2024-01-25T03:07:37;10.50;99.90
18694;DHT22;9477;51.414;10.362;2024-01-25T03:09:40;10.50;99.90
18694;DHT22;9477;51.414;10.362;2024-01-25T03:11:44;10.50;99.90
18694;DHT22;9477;51.414;10.362;2024-01-25T03:13:47;10.30;99.90
18694;DHT22;9477;51.414;10.362;2024-01-25T03:15:49;10.30;99.90
18694;DHT22;9477;51.414;10.362;2024-01-25T03:17:52;10.20;99.90
18694;DHT22;9477;51.414;10.362;2024-01-25T03:19:55;10.30;99.90
18694;DHT22;9477;51.414;10.362;2024-01-25T03:21:58;10.30;99.90
18694;DHT22;9477;51.414;10.362;2024-01-25T03:24:03;10.40;99.90
18694;DHT22;9477;51.414;10.362;2024-01-25T03:26:06;10.30;99.90
18694;DHT22;9477;51.414;10.362;2024-01-25T03:28:11;10.20;99.90
18694;DHT22;9477;51.414;10.362;2024-01-25T03:30:15;10.20;99.90
18694;DHT22;9477;51.414;10.362;2024-01-25T03:32:18;10.00;99.90
18694;DHT22;9477;51.414;10.362;2024-01-25T03:34:21;9.80;99.90
18694;DHT22;9477;51.414;10.362;2024-01-25T03:36:24;9.90;99.90
18694;DHT22;9477;51.414;10.362;2024-01-25T03:38:27;9.90;99.90
18694;DHT22;9477;51.414;10.362;2024-01-25T03:40:30;10.00;99.90
18694;DHT22;9477;51.414;10.362;2024-01-25T03:42:33;9.90;99.90
18694;DHT22;9477;51.414;10.362;2024-01-25T03:44:37;9.90;99.90
18694;DHT22;9477;51.414;10.362;2024-01-25T03:46:40;9.80;99.90
18694;DHT22;9477;51.414;10.362;2024-01-25T03:48:42;10.00;99.90
18694;DHT22;9477;51.414;10.362;2024-01-25T03:50:45;9.90;99.90
18694;DHT22;9477;51.414;10.362;2024-01-25T03:52:47;10.00;99.90
18694;DHT22;9477;51.414;10.362;2024-01-25T03:54:50;9.80;99.90
18694;DHT22;9477;51.414;10.362;2024-01-25T03:56:53;9.70;99.90
18694;DHT22;9477;51.414;10.362;2024-01-25T03:58:55;9.70;99.90
18694;DHT22;9477;51.414;10.362;2024-01-25T04:00:59;9.70;99.90
18694;DHT22;9477;51.414;10.362;2024-01-25T04:03:02;9.60;99.90
18694;DHT22;9477;51.414;10.362;2024-01-25T04:05:06;9.70;99.90
18694;DHT22;9477;51.414;10.362;2024-01-25T04:07:09;10.00;99.90
18694;DHT22;9477;51.414;10.362;2024-01-25T04:09:12;10.00;99.90
18694;DHT22;9477;51.414;10.362;2024-01-25T04:11:14;9.90;99.90
18694;DHT22;9477;51.414;10.362;2024-01-25T04:13:17;9.90;99.90
18694;DHT22;9477;51.414;10.362;2024-01-25T04:15:19;9.90;99.90
18694;DHT22;9477;51.414;10.362;2024-01-25T04:17:23;10.00;99.90
18694;DHT22;9477;51.414;10.362;2024-01-25T04:19:25;9.80;99.90
18694;DHT22;9477;51.414;10.362;2024-01-25T04:21:28;9.60;99.90
18694;DHT22;9477;51.414;10.362;2024-01-25T04:23:31;9.50;99.90
18694;DHT22;9477;51.414;10.362;2024-01-25T04:25:34;9.60;99.90
18694;DHT22;9477;51.414;10.362;2024-01-25T04:27:37;9.60;99.90
18694;DHT22;9477;51.414;10.362;2024-01-25T04:29:40;9.60;99.90
18694;DHT22;9477;51.414;10.362;2024-01-25T04:31:43;9.40;99.90
18694;DHT22;9477;51.414;10.362;2024-01-25T04:33:48;9.50;99.90
18694;DHT22;9477;51.414;10.362;2024-01-25T04:35:51;9.30;99.90
18694;DHT22;9477;51.414;10.362;2024-01-25T04:37:54;9.30;99.90
18694;DHT22;9477;51.414;10.362;2024-01-25T04:39:57;9.50;99.90
18694;DHT22;9477;51.414;10.362;2024-01-25T04:41:59;9.60;99.90
18694;DHT22;9477;51.414;10.362;2024-01-25T04:44:02;9.40;99.90
18694;DHT22;9477;51.414;10.362;2024-01-25T04:46:05;9.60;99.90
18694;DHT22;9477;51.414;10.362;2024-01-25T04:48:09;9.40;99.90
18694;DHT22;9477;51.414;10.362;2024-01-25T04:50:13;9.30;99.90
18694;DHT22;9477;51.414;10.362;2024-01-25T04:52:16;9.60;99.90
18694;DHT22;9477;51.414;10.362;2024-01-25T04:54:19;9.60;99.90
18694;DHT22;9477;51.414;10.362;2024-01-25T04:56:22;9.60;99.90
18694;DHT22;9477;51.414;10.362;2024-01-25T04:58:24;9.50;99.90
18694;DHT22;9477;51.414;10.362;2024-01-25T05:00:27;9.60;99.90
18694;DHT22;9477;51.414;10.362;2024-01-25T05:02:29;9.60;99.90
18694;DHT22;9477;51.414;10.362;2024-01-25T05:04:32;9.60;99.90
18694;DHT22;9477;51.414;10.362;2024-01-25T05:06:38;9.60;99.90
18694;DHT22;9477;51.414;10.362;2024-01-25T05:08:42;9.70;99.90
18694;DHT22;9477;51.414;10.362;2024-01-25T05:10:45;9.50;99.90
18694;DHT22;9477;51.414;10.362;2024-01-25T05:12:48;9.50;99.90
18694;DHT22;9477;51.414;10.362;2024-01-25T05:14:51;9.60;99.90
18694;DHT22;9477;51.414;10.362;2024-01-25T05:16:54;9.60;99.90
18694;DHT22;9477;51.414;10.362;2024-01-25T05:18:57;9.50;99.90
18694;DHT22;9477;51.414;10.362;2024-01-25T05:20:59;9.60;99.90
18694;DHT22;9477;51.414;10.362;2024-01-25T05:23:04;9.60;99.90
18694;DHT22;9477;51.414;10.362;2024-01-25T05:25:11;9.50;99.90
18694;DHT22;9477;51.414;10.362;2024-01-25T05:27:14;9.60;99.90
18694;DHT22;9477;51.414;10.362;2024-01-25T05:29:17;9.60;99.90
18694;DHT22;9477;51.414;10.362;2024-01-25T05:31:19;9.60;99.90
18694;DHT22;9477;51.414;10.362;2024-01-25T05:33:22;9.40;99.90
18694;DHT22;9477;51.414;10.362;2024-01-25T05:35:25;9.40;99.90
18694;DHT22;9477;51.414;10.362;2024-01-25T05:37:28;9.40;99.90
18694;DHT22;9477;51.414;10.362;2024-01-25T05:39:33;9.40;99.90
18694;DHT22;9477;51.414;10.362;2024-01-25T05:41:36;9.30;99.90
18694;DHT22;9477;51.414;10.362;2024-01-25T05:43:38;9.50;99.90
18694;DHT22;9477;51.414;10.362;2024-01-25T05:45:41;9.50;99.90
18694;DHT22;9477;51.414;10.362;2024-01-25T05:47:45;9.60;99.90
18694;DHT22;9477;51.414;10.362;2024-01-25T05:49:47;9.50;99.90
18694;DHT22;9477;51.414;10.362;2024-01-25T05:51:50;9.40;99.90
18694;DHT22;9477;51.414;10.362;2024-01-25T05:53:53;9.50;99.90
18694;DHT22;9477;51.414;10.362;2024-01-25T05:55:57;9.70;99.90
18694;DHT22;9477;51.414;10.362;2024-01-25T05:58:00;9.70;99.90
18694;DHT22;9477;51.414;10.362;2024-01-25T06:00:05;9.60;99.90
18694;DHT22;9477;51.414;10.362;2024-01-25T06:02:08;9.70;99.90
18694;DHT22;9477;51.414;10.362;2024-01-25T06:04:10;9.60;99.90
18694;DHT22;9477;51.414;10.362;2024-01-25T06:06:13;9.70;99.90
18694;DHT22;9477;51.414;10.362;2024-01-25T06:08:16;9.50;99.90
18694;DHT22;9477;51.414;10.362;2024-01-25T06:10:19;9.50;99.90
18694;DHT22;9477;51.414;10.362;2024-01-25T06:12:23;9.50;99.90
18694;DHT22;9477;51.414;10.362;2024-01-25T06:14:26;9.50;99.90
18694;DHT22;9477;51.414;10.362;2024-01-25T06:16:28;9.50;99.90
18694;DHT22;9477;51.414;10.362;2024-01-25T06:18:31;9.60;99.90
18694;DHT22;9477;51.414;10.362;2024-01-25T06:20:33;9.60;99.90
18694;DHT22;9477;51.414;10.362;2024-01-25T06:22:36;9.70;99.90
18694;DHT22;9477;51.414;10.362;2024-01-25T06:24:39;9.80;99.90
18694;DHT22;9477;51.414;10.362;2024-01-25T06:26:42;9.70;99.90
18694;DHT22;9477;51.414;10.362;2024-01-25T06:28:47;9.70;99.90
18694;DHT22;9477;51.414;10.362;2024-01-25T06:30:49;9.80;99.90
18694;DHT22;9477;51.414;10.362;2024-01-25T06:32:52;9.50;99.90
18694;DHT22;9477;51.414;10.362;2024-01-25T06:34:55;9.70;99.90
18694;DHT22;9477;51.414;10.362;2024-01-25T06:36:58;9.60;99.90
18694;DHT22;9477;51.414;10.362;2024-01-25T06:39:01;9.70;99.90
18694;DHT22;9477;51.414;10.362;2024-01-25T06:41:05;9.80;99.90
18694;DHT22;9477;51.414;10.362;2024-01-25T06:43:08;9.70;99.90
18694;DHT22;9477;51.414;10.362;2024-01-25T06:45:16;9.70;99.90
18694;DHT22;9477;51.414;10.362;2024-01-25T06:47:19;9.80;99.90
18694;DHT22;9477;51.414;10.362;2024-01-25T06:49:24;9.80;99.90
18694;DHT22;9477;51.414;10.362;2024-01-25T06:51:27;9.80;99.90
18694;DHT22;9477;51.414;10.362;2024-01-25T06:53:30;9.80;99.90
18694;DHT22;9477;51.414;10.362;2024-01-25T06:55:34;9.90;99.90
18694;DHT22;9477;51.414;10.362;2024-01-25T06:57:38;9.90;99.90
18694;DHT22;9477;51.414;10.362;2024-01-25T06:59:41;9.90;99.90
18694;DHT22;9477;51.414;10.362;2024-01-25T07:01:46;9.70;99.90
18694;DHT22;9477;51.414;10.362;2024-01-25T07:03:49;9.70;99.90
18694;DHT22;9477;51.414;10.362;2024-01-25T07:05:53;9.60;99.90
18694;DHT22;9477;51.414;10.362;2024-01-25T07:07:56;9.70;99.90
18694;DHT22;9477;51.414;10.362;2024-01-25T07:09:59;9.70;99.90
18694;DHT22;9477;51.414;10.362;2024-01-25T07:12:02;9.90;99.90
18694;DHT22;9477;51.414;10.362;2024-01-25T07:14:06;9.90;99.90
18694;DHT22;9477;51.414;10.362;2024-01-25T07:16:09;9.80;99.90
18694;DHT22;9477;51.414;10.362;2024-01-25T07:18:13;9.80;99.90
18694;DHT22;9477;51.414;10.362;2024-01-25T07:20:16;9.70;99.90
18694;DHT22;9477;51.414;10.362;2024-01-25T07:22:19;9.80;99.90
18694;DHT22;9477;51.414;10.362;2024-01-25T07:24:24;9.70;99.90
18694;DHT22;9477;51.414;10.362;2024-01-25T07:26:28;9.70;99.90
18694;DHT22;9477;51.414;10.362;2024-01-25T07:28:32;9.80;99.90
18694;DHT22;9477;51.414;10.362;2024-01-25T07:30:35;9.90;99.90
18694;DHT22;9477;51.414;10.362;2024-01-25T07:32:38;9.90;99.90
18694;DHT22;9477;51.414;10.362;2024-01-25T07:34:44;9.80;99.90
18694;DHT22;9477;51.414;10.362;2024-01-25T07:36:48;9.80;99.90
18694;DHT22;9477;51.414;10.362;2024-01-25T07:38:50;9.80;99.90
18694;DHT22;9477;51.414;10.362;2024-01-25T07:40:53;9.70;99.90
18694;DHT22;9477;51.414;10.362;2024-01-25T07:42:57;9.60;99.90
18694;DHT22;9477;51.414;10.362;2024-01-25T07:45:00;9.50;99.90
18694;DHT22;9477;51.414;10.362;2024-01-25T07:47:02;9.50;99.90
18694;DHT22;9477;51.414;10.362;2024-01-25T07:49:05;9.60;99.90
18694;DHT22;9477;51.414;10.362;2024-01-25T07:51:12;9.50;99.90
18694;DHT22;9477;51.414;10.362;2024-01-25T07:53:15;9.70;99.90
18694;DHT22;9477;51.414;10.362;2024-01-25T07:55:19;9.80;99.90
18694;DHT22;9477;51.414;10.362;2024-01-25T07:57:22;9.80;99.90
18694;DHT22;9477;51.414;10.362;2024-01-25T07:59:25;9.90;99.90
18694;DHT22;9477;51.414;10.362;2024-01-25T08:01:27;9.90;99.90
18694;DHT22;9477;51.414;10.362;2024-01-25T08:03:30;9.70;99.90
18694;DHT22;9477;51.414;10.362;2024-01-25T08:05:34;9.70;99.90
18694;DHT22;9477;51.414;10.362;2024-01-25T08:07:49;9.80;99.90
18694;DHT22;9477;51.414;10.362;2024-01-25T08:09:52;9.80;99.90
18694;DHT22;9477;51.414;10.362;2024-01-25T08:11:59;9.80;99.90
18694;DHT22;9477;51.414;10.362;2024-01-25T08:14:02;9.70;99.90
18694;DHT22;9477;51.414;10.362;2024-01-25T08:16:09;9.90;99.90
18694;DHT22;9477;51.414;10.362;2024-01-25T08:18:12;9.90;99.90
18694;DHT22;9477;51.414;10.362;2024-01-25T08:20:15;9.80;99.90
18694;DHT22;9477;51.414;10.362;2024-01-25T08:22:18;9.90;99.90
18694;DHT22;9477;51.414;10.362;2024-01-25T08:24:25;9.80;99.90
18694;DHT22;9477;51.414;10.362;2024-01-25T08:26:28;9.80;99.90
18694;DHT22;9477;51.414;10.362;2024-01-25T08:28:31;9.70;99.90
18694;DHT22;9477;51.414;10.362;2024-01-25T08:30:33;9.80;99.90
18694;DHT22;9477;51.414;10.362;2024-01-25T08:32:36;9.80;99.90
18694;DHT22;9477;51.414;10.362;2024-01-25T08:34:40;9.80;99.90
18694;DHT22;9477;51.414;10.362;2024-01-25T08:36:43;9.80;99.90
18694;DHT22;9477;51.414;10.362;2024-01-25T08:38:46;9.90;99.90
18694;DHT22;9477;51.414;10.362;2024-01-25T08:40:50;9.90;99.90
18694;DHT22;9477;51.414;10.362;2024-01-25T08:42:53;9.80;99.90
18694;DHT22;9477;51.414;10.362;2024-01-25T08:44:56;9.80;99.90
18694;DHT22;9477;51.414;10.362;2024-01-25T08:46:59;9.80;99.90
18694;DHT22;9477;51.414;10.362;2024-01-25T08:49:01;9.90;99.90
18694;DHT22;9477;51.414;10.362;2024-01-25T08:51:10;9.80;99.90
18694;DHT22;9477;51.414;10.362;2024-01-25T08:53:13;9.90;99.90
18694;DHT22;9477;51.414;10.362;2024-01-25T08:55:16;9.90;99.90
18694;DHT22;9477;51.414;10.362;2024-01-25T08:57:20;9.80;99.90
18694;DHT22;9477;51.414;10.362;2024-01-25T08:59:23;9.80;99.90
18694;DHT22;9477;51.414;10.362;2024-01-25T09:01:26;9.90;99.90
18694;DHT22;9477;51.414;10.362;2024-01-25T09:03:29;9.80;99.90
18694;DHT22;9477;51.414;10.362;2024-01-25T09:05:31;10.00;99.90
18694;DHT22;9477;51.414;10.362;2024-01-25T09:07:36;9.90;99.90
18694;DHT22;9477;51.414;10.362;2024-01-25T09:09:39;10.00;99.90
18694;DHT22;9477;51.414;10.362;2024-01-25T09:11:42;10.00;99.90
18694;DHT22;9477;51.414;10.362;2024-01-25T09:13:47;10.00;99.90
18694;DHT22;9477;51.414;10.362;2024-01-25T09:15:51;10.10;99.90
18694;DHT22;9477;51.414;10.362;2024-01-25T09:17:54;10.10;99.90
18694;DHT22;9477;51.414;10.362;2024-01-25T09:19:57;10.10;99.90
18694;DHT22;9477;51.414;10.362;2024-01-25T09:22:02;10.00;99.90
18694;DHT22;9477;51.414;10.362;2024-01-25T09:24:06;10.00;99.90
18694;DHT22;9477;51.414;10.362;2024-01-25T09:26:09;10.00;99.90
18694;DHT22;9477;51.414;10.362;2024-01-25T09:28:12;10.00;99.90
18694;DHT22;9477;51.414;10.362;2024-01-25T09:30:17;10.00;99.90
18694;DHT22;9477;51.414;10.362;2024-01-25T09:32:20;10.00;99.90
18694;DHT22;9477;51.414;10.362;2024-01-25T09:34:23;10.00;99.90
18694;DHT22;9477;51.414;10.362;2024-01-25T09:36:26;10.00;99.90
18694;DHT22;9477;51.414;10.362;2024-01-25T09:38:29;9.90;99.90
18694;DHT22;9477;51.414;10.362;2024-01-25T09:40:32;10.00;99.90
18694;DHT22;9477;51.414;10.362;2024-01-25T09:42:38;10.00;99.90
18694;DHT22;9477;51.414;10.362;2024-01-25T09:44:41;10.20;99.90
18694;DHT22;9477;51.414;10.362;2024-01-25T09:46:47;10.00;99.90
18694;DHT22;9477;51.414;10.362;2024-01-25T09:48:50;10.10;99.90
18694;DHT22;9477;51.414;10.362;2024-01-25T09:50:55;10.20;99.90
18694;DHT22;9477;51.414;10.362;2024-01-25T09:52:59;10.00;99.90
18694;DHT22;9477;51.414;10.362;2024-01-25T09:55:05;10.00;99.90
18694;DHT22;9477;51.414;10.362;2024-01-25T09:57:14;10.10;99.90
18694;DHT22;9477;51.414;10.362;2024-01-25T09:59:16;10.30;99.90
18694;DHT22;9477;51.414;10.362;2024-01-25T10:01:19;10.40;99.90
18694;DHT22;9477;51.414;10.362;2024-01-25T10:03:23;10.40;99.90
18694;DHT22;9477;51.414;10.362;2024-01-25T10:05:26;10.40;99.90
18694;DHT22;9477;51.414;10.362;2024-01-25T10:07:35;10.30;99.90
18694;DHT22;9477;51.414;10.362;2024-01-25T10:09:40;10.40;99.90
18694;DHT22;9477;51.414;10.362;2024-01-25T10:11:44;10.40;99.90
18694;DHT22;9477;51.414;10.362;2024-01-25T10:14:00;10.30;99.90
18694;DHT22;9477;51.414;10.362;2024-01-25T10:16:03;10.40;99.90
18694;DHT22;9477;51.414;10.362;2024-01-25T10:18:07;10.50;99.90
18694;DHT22;9477;51.414;10.362;2024-01-25T10:20:32;10.50;99.90
18694;DHT22;9477;51.414;10.362;2024-01-25T10:22:37;10.60;99.90
18694;DHT22;9477;51.414;10.362;2024-01-25T10:24:41;10.40;99.90
18694;DHT22;9477;51.414;10.362;2024-01-25T10:26:45;10.60;99.90
18694;DHT22;9477;51.414;10.362;2024-01-25T10:28:52;10.60;99.90
18694;DHT22;9477;51.414;10.362;2024-01-25T10:31:03;10.50;99.90
18694;DHT22;9477;51.414;10.362;2024-01-25T10:33:09;10.60;99.90
18694;DHT22;9477;51.414;10.362;2024-01-25T10:35:13;10.70;99.90
18694;DHT22;9477;51.414;10.362;2024-01-25T10:37:18;10.70;99.90
18694;DHT22;9477;51.414;10.362;2024-01-25T10:39:24;10.60;99.90
18694;DHT22;9477;51.414;10.362;2024-01-25T10:41:27;10.70;99.90
18694;DHT22;9477;51.414;10.362;2024-01-25T10:43:31;10.70;99.90
18694;DHT22;9477;51.414;10.362;2024-01-25T10:45:34;10.70;99.90
18694;DHT22;9477;51.414;10.362;2024-01-25T10:47:37;10.70;99.90
18694;DHT22;9477;51.414;10.362;2024-01-25T10:49:43;10.60;99.90
18694;DHT22;9477;51.414;10.362;2024-01-25T10:51:49;10.70;99.90
18694;DHT22;9477;51.414;10.362;2024-01-25T10:53:54;10.60;99.90
18694;DHT22;9477;51.414;10.362;2024-01-25T10:55:57;10.60;99.90
18694;DHT22;9477;51.414;10.362;2024-01-25T10:58:00;10.80;99.90
18694;DHT22;9477;51.414;10.362;2024-01-25T11:00:06;10.70;99.90
18694;DHT22;9477;51.414;10.362;2024-01-25T11:02:09;10.70;99.90
18694;DHT22;9477;51.414;10.362;2024-01-25T11:04:12;10.70;99.90
18694;DHT22;9477;51.414;10.362;2024-01-25T11:06:15;10.70;99.90
18694;DHT22;9477;51.414;10.362;2024-01-25T11:08:19;10.60;99.90
18694;DHT22;9477;51.414;10.362;2024-01-25T11:10:25;10.50;99.90
18694;DHT22;9477;51.414;10.362;2024-01-25T11:12:29;10.60;99.90
18694;DHT22;9477;51.414;10.362;2024-01-25T11:14:37;10.60;99.90
18694;DHT22;9477;51.414;10.362;2024-01-25T11:16:40;10.60;99.90
18694;DHT22;9477;51.414;10.362;2024-01-25T11:18:49;10.60;99.90
18694;DHT22;9477;51.414;10.362;2024-01-25T11:20:53;10.60;99.90
18694;DHT22;9477;51.414;10.362;2024-01-25T11:22:57;10.40;99.90
18694;DHT22;9477;51.414;10.362;2024-01-25T11:24:59;10.50;99.90
18694;DHT22;9477;51.414;10.362;2024-01-25T11:27:14;10.60;99.90
18694;DHT22;9477;51.414;10.362;2024-01-25T11:29:18;10.70;99.90
18694;DHT22;9477;51.414;10.362;2024-01-25T11:31:22;11.00;99.90
18694;DHT22;9477;51.414;10.362;2024-01-25T11:33:25;11.00;99.90
18694;DHT22;9477;51.414;10.362;2024-01-25T11:35:28;11.10;99.90
18694;DHT22;9477;51.414;10.362;2024-01-25T11:37:32;11.00;99.90
18694;DHT22;9477;51.414;10.362;2024-01-25T11:39:35;11.00;99.90
18694;DHT22;9477;51.414;10.362;2024-01-25T11:41:38;10.70;99.90
18694;DHT22;9477;51.414;10.362;2024-01-25T11:43:42;10.70;99.90
18694;DHT22;9477;51.414;10.362;2024-01-25T11:45:45;10.90;99.90
18694;DHT22;9477;51.414;10.362;2024-01-25T11:47:47;10.80;99.90
18694;DHT22;9477;51.414;10.362;2024-01-25T11:49:50;10.60;99.90
18694;DHT22;9477;51.414;10.362;2024-01-25T11:51:52;10.50;99.90
18694;DHT22;9477;51.414;10.362;2024-01-25T11:53:56;10.60;99.90
18694;DHT22;9477;51.414;10.362;2024-01-25T11:55:59;10.80;99.90
18694;DHT22;9477;51.414;10.362;2024-01-25T11:58:02;11.00;99.90
18694;DHT22;9477;51.414;10.362;2024-01-25T12:00:08;10.70;99.90
18694;DHT22;9477;51.414;10.362;2024-01-25T12:02:11;10.80;99.90
18694;DHT22;9477;51.414;10.362;2024-01-25T12:04:15;10.90;99.90
18694;DHT22;9477;51.414;10.362;2024-01-25T12:06:18;11.00;99.90
18694;DHT22;9477;51.414;10.362;2024-01-25T12:08:22;10.90;99.90
18694;DHT22;9477;51.414;10.362;2024-01-25T12:10:23;11.00;99.90
18694;DHT22;9477;51.414;10.362;2024-01-25T12:12:27;11.00;99.90
18694;DHT22;9477;51.414;10.362;2024-01-25T12:14:29;10.90;99.90
18694;DHT22;9477;51.414;10.362;2024-01-25T12:16:33;10.80;99.90
18694;DHT22;9477;51.414;10.362;2024-01-25T12:18:42;10.90;99.90
18694;DHT22;9477;51.414;10.362;2024-01-25T12:20:46;11.10;99.90
18694;DHT22;9477;51.414;10.362;2024-01-25T12:22:49;11.00;99.90
18694;DHT22;9477;51.414;10.362;2024-01-25T12:24:53;11.10;99.90
18694;DHT22;9477;51.414;10.362;2024-01-25T12:27:02;11.30;99.90
18694;DHT22;9477;51.414;10.362;2024-01-25T12:29:05;11.30;99.90
18694;DHT22;9477;51.414;10.362;2024-01-25T12:31:09;11.20;99.90
18694;DHT22;9477;51.414;10.362;2024-01-25T12:33:13;11.30;99.90
18694;DHT22;9477;51.414;10.362;2024-01-25T12:35:23;11.20;99.90
18694;DHT22;9477;51.414;10.362;2024-01-25T12:37:26;11.20;99.90
18694;DHT22;9477;51.414;10.362;2024-01-25T12:39:30;11.10;99.90
18694;DHT22;9477;51.414;10.362;2024-01-25T12:41:33;11.10;99.90
18694;DHT22;9477;51.414;10.362;2024-01-25T12:43:35;11.00;99.90
18694;DHT22;9477;51.414;10.362;2024-01-25T12:45:39;11.00;99.90
18694;DHT22;9477;51.414;10.362;2024-01-25T12:47:42;11.10;99.90
18694;DHT22;9477;51.414;10.362;2024-01-25T12:49:45;11.00;99.90
18694;DHT22;9477;51.414;10.362;2024-01-25T12:51:49;11.10;99.90
18694;DHT22;9477;51.414;10.362;2024-01-25T12:53:55;11.20;99.90
18694;DHT22;9477;51.414;10.362;2024-01-25T12:55:58;11.30;99.90
18694;DHT22;9477;51.414;10.362;2024-01-25T12:58:01;11.20;99.90
18694;DHT22;9477;51.414;10.362;2024-01-25T13:00:03;11.20;99.90
18694;DHT22;9477;51.414;10.362;2024-01-25T13:02:07;11.30;99.90
18694;DHT22;9477;51.414;10.362;2024-01-25T13:04:10;11.20;99.90
18694;DHT22;9477;51.414;10.362;2024-01-25T13:06:15;11.10;99.90